Flight Track Log - Related Links

Times and Time Zones

All times are in EDT time to prevent confusion due to time zone crossing. See the ASQ5685 flight status page for this flight to view local times or setup timezone preferences in your user account.

Time Position Orientation Groundspeed Altitude Reporting Facility
EDT Latitude Longitude Course Direction KTS MPH feet Rate Location/Type
Wed 09:28:28 AM 33.6350 -84.3931 48° Northeast 391 450 2,500  Level Atlanta Center
Wed 09:29:21 AM 33.6333 -84.3167 91° East 237 273 4,500 2,526 Climbing Atlanta TRACON
Wed 09:30:00 AM 33.8465 -84.1786 73° East  Level Estimated
Wed 09:30:22 AM 33.6333 -84.2333 90° East 256 295 7,300  Level Atlanta TRACON
Wed 09:31:00 AM 33.9164 -84.0952 54° Northeast  Level Estimated
Wed 09:32:00 AM 33.8979 -83.9789 101° East  Level FlightAware Approximate
Wed 09:32:28 AM 33.6647 -84.0639 77° East 279 321 11,400  Level Atlanta Center
Wed 09:33:00 AM 33.9684 -83.8962 48° Northeast  Level Estimated
Wed 09:33:28 AM 33.7233 -83.9864 48° Northeast 293 337 13,400  Level Atlanta Center
Wed 09:34:28 AM 33.7900 -83.9014 47° Northeast 306 352 15,300 1,650 Climbing Atlanta Center
Wed 09:35:28 AM 33.8525 -83.8186 48° Northeast 321 369 16,700 1,250 Climbing Atlanta Center
Wed 09:36:28 AM 33.9192 -83.7358 46° Northeast 326 375 17,800 1,000 Climbing Atlanta Center
Wed 09:37:28 AM 33.9814 -83.6381 52° Northeast 350 403 18,700 700 Climbing Atlanta Center
Wed 09:38:28 AM 34.0458 -83.5347 53° Northeast 370 426 19,200 500 Climbing Atlanta Center
Wed 09:39:28 AM 34.1161 -83.4242 52° Northeast 395 455 19,700 500 Climbing Atlanta Center
Wed 09:40:28 AM 34.1867 -83.3131 52° Northeast 405 466 20,200 500 Climbing Atlanta Center
Wed 09:41:28 AM 34.2567 -83.1969 54° Northeast 422 486 20,700 550 Climbing Atlanta Center
Wed 09:42:28 AM 34.3269 -83.0806 54° Northeast 422 486 21,300 550 Climbing Atlanta Center
Wed 09:43:28 AM 34.4011 -82.9689 51° Northeast 428 493 21,800 500 Climbing Atlanta Center
Wed 09:44:28 AM 34.4708 -82.8469 55° Northeast 433 498 22,300 450 Climbing Atlanta Center
Wed 09:45:28 AM 34.5367 -82.7453 52° Northeast 433 498 22,700 450 Climbing Atlanta Center
Wed 09:46:28 AM 34.6083 -82.6231 55° Northeast 433 498 23,200 650 Climbing Atlanta Center
Wed 09:47:28 AM 34.6903 -82.4978 51° Northeast 433 498 24,000 900 Climbing Atlanta Center
Wed 09:48:28 AM 34.7597 -82.3853 53° Northeast 428 493 25,000 1,000 Climbing Atlanta Center
Wed 09:49:28 AM 34.8269 -82.2650 56° Northeast 422 486 26,000 950 Climbing Atlanta Center
Wed 09:50:28 AM 34.8983 -82.1544 52° Northeast 422 486 26,900 750 Climbing Atlanta Center
Wed 09:51:28 AM 34.9656 -82.0389 55° Northeast 417 480 27,500 600 Climbing Atlanta Center
Wed 09:52:28 AM 35.0367 -81.9256 53° Northeast 417 480 28,100 600 Climbing Atlanta Center
Wed 09:53:28 AM 35.1011 -81.7997 58° Northeast 417 480 28,700 450 Climbing Atlanta Center
Wed 09:54:28 AM 35.1656 -81.6783 57° Northeast 424 488 29,000 150 Climbing Atlanta Center
Wed 09:55:28 AM 35.2319 -81.5494 58° Northeast 429 494 29,000  Level Atlanta Center
Wed 09:56:28 AM 35.2964 -81.4356 55° Northeast 450 518 29,000  Level Atlanta Center
Wed 09:57:28 AM 35.3625 -81.3111 57° Northeast 450 518 29,000  Level Atlanta Center
Wed 09:58:28 AM 35.4222 -81.1869 59° Northeast 437 503 29,000  Level Atlanta Center
Wed 09:59:28 AM 35.4800 -81.0728 58° Northeast 414 476 29,000  Level Atlanta Center
Wed 10:00:28 AM 35.5378 -80.9608 58° Northeast 398 458 29,000  Level Atlanta Center
Wed 10:01:28 AM 35.5956 -80.8514 57° Northeast 386 444 29,000  Level Atlanta Center
Wed 10:02:28 AM 35.6531 -80.7367 58° Northeast 386 444 29,000  Level Atlanta Center
Wed 10:03:28 AM 35.7064 -80.6350 57° Northeast 375 432 29,000  Level Atlanta Center
Wed 10:04:28 AM 35.7678 -80.5144 58° Northeast 375 432 29,000  Level Atlanta Center
Wed 10:05:28 AM 35.8231 -80.4072 58° Northeast 375 432 29,000  Level Atlanta Center
Wed 10:06:28 AM 35.8764 -80.3047 57° Northeast 375 432 29,000  Level Atlanta Center
Wed 10:08:28 AM 35.9856 -80.1022 56° Northeast 371 427 29,000  Level Washington Center
Wed 10:09:28 AM 36.0394 -79.9947 58° Northeast 371 427 29,000  Level Washington Center
Wed 10:10:26 AM 36.0975 -79.8928 55° Northeast 366 421 29,000  Level Washington Center
Wed 10:11:27 AM 36.1533 -79.7903 56° Northeast 361 415 29,000  Level Washington Center
Wed 10:12:27 AM 36.2156 -79.6778 56° Northeast 372 428 29,000  Level Washington Center
Wed 10:13:28 AM 36.2711 -79.5803 55° Northeast 383 441 29,000 -250 Level Washington Center
Wed 10:14:27 AM 36.3422 -79.4522 55° Northeast 397 457 28,500 -605 Descending Washington Center
Wed 10:15:27 AM 36.4083 -79.3342 55° Northeast 408 470 27,800 -645 Descending Washington Center
Wed 10:16:28 AM 36.4725 -79.2183 55° Northeast 430 495 27,200 -645 Descending Washington Center
Wed 10:17:28 AM 36.5517 -79.0825 54° Northeast 435 501 26,500 -706 Descending Washington Center
Wed 10:18:27 AM 36.6242 -78.9539 55° Northeast 435 501 25,800 -750 Descending Washington Center
Wed 10:19:28 AM 36.6903 -78.8244 57° Northeast 441 507 25,000 -397 Descending Washington Center
Wed 10:20:28 AM 36.7517 -78.7131 55° Northeast 414 476 25,000  Level Washington Center
Wed 10:21:26 AM 36.8086 -78.6089 56° Northeast 381 438 25,000  Level Washington Center
Wed 10:22:26 AM 36.8675 -78.5047 55° Northeast 368 423 25,000 -397 Level Washington Center
Wed 10:23:27 AM 36.9319 -78.4319 42° Northeast 357 411 24,200 -885 Descending Washington Center
Wed 10:24:28 AM 37.0067 -78.3567 39° Northeast 345 397 23,200 -992 Descending Washington Center
Wed 10:25:28 AM 37.0814 -78.2811 39° Northeast 340 391 22,200 -610 Descending Washington Center
Wed 10:26:26 AM 37.1667 -78.1956 39° Northeast 345 397 22,000 -102 Descending Washington Center
Wed 10:27:26 AM 37.2328 -78.1325 37° Northeast 345 397 22,000  Level Washington Center
Wed 10:28:28 AM 37.3097 -78.0517 40° Northeast 345 397 22,000  Level Washington Center
Wed 10:29:28 AM 37.3861 -77.9756 38° Northeast 345 397 22,000  Level Washington Center
Wed 10:30:27 AM 37.4628 -77.8969 39° Northeast 350 403 22,000 -600 Level Washington Center
Wed 10:31:28 AM 37.5414 -77.8208 38° Northeast 355 409 20,800 -1,339 Descending Washington Center
Wed 10:32:28 AM 37.6300 -77.7708 24° Northeast 348 400 19,300 -1,513 Descending Washington Center
Wed 10:33:27 AM 37.7144 -77.7208 25° Northeast 337 388 17,800 -1,311 Descending Washington Center
Wed 10:34:27 AM 37.7967 -77.6706 26° Northeast 332 382 16,700 -1,289 Descending Washington Center
Wed 10:35:28 AM 37.8828 -77.6228 24° Northeast 326 375 15,200 -1,513 Descending Washington Center
Wed 10:36:26 AM 37.9608 -77.5750 26° Northeast 314 361 13,700 -1,373 Descending Washington Center
Wed 10:37:26 AM 38.0386 -77.5322 23° Northeast 308 354 12,500 -1,279 Descending Washington Center
Wed 10:38:28 AM 38.1167 -77.4894 23° Northeast 303 349 11,100 -1,250 Descending Washington Center
Wed 10:39:26 AM 38.1881 -77.4464 25° Northeast 291 335 10,000 -559 Descending Washington Center
Wed 10:40:26 AM 38.2575 -77.4031 26° Northeast 279 321 10,000  Level Washington Center
Wed 10:41:27 AM 38.3269 -77.3622 25° Northeast 279 321 10,000 -738 Level Washington Center
Wed 10:42:28 AM 38.4083 -77.3589 North 273 314 8,500 -1,513 Descending Washington Center
Wed 10:43:26 AM 38.4833 -77.3633 357° North 273 314 7,000 -1,462 Descending Washington Center
Wed 10:44:27 AM 38.5542 -77.3650 359° North 268 308 5,600 -1,140 Descending Washington Center
Wed 10:45:27 AM 38.6292 -77.3669 359° North 268 308 4,700 -706 Descending Washington Center
Wed 10:46:26 AM 38.7003 -77.3633 North 263 303 4,200 -339 Descending Washington Center
Wed 10:47:31 AM 38.7833 -77.3500 North 254 292 4,000 -95 Descending Potomac TRACON
Wed 10:48:32 AM 38.8500 -77.3500 360° North 232 267 4,000 -347 Level Potomac TRACON
Wed 10:49:32 AM 38.9167 -77.3500 360° North 236 272 3,300 -496 Descending Potomac TRACON
Wed 10:50:33 AM 38.9833 -77.3500 360° North 201 231 3,000 -295 Descending Potomac TRACON

Login

Don't have an account? Register now (free) for customized features, flight alerts, and more!